Time;durP1;ratioP1;P1;durP2;ratioP2;P2;SDS_P1;SDS_P2;PMS_P1;PMS_P2;Temp;Humidity;BMP_temperature;BMP_pressure;BME280_temperature;BME280_humidity;BME280_pressure;Samples;Min_cycle;Max_cycle;Signal;HPM_P1;HPM_P2
2023/04/20 00:02:17;;;;;;;10.67;9.57;;;;;;;5.53;100.00;96239.44;4989007;28;104189;-62
2023/04/20 00:04:45;;;;;;;10.33;9.23;;;;;;;5.50;100.00;96237.22;4989612;28;101892;-62
2023/04/20 00:07:12;;;;;;;11.23;9.40;;;;;;;5.49;100.00;96239.09;4992182;28;104899;-62
2023/04/20 00:09:39;;;;;;;10.07;9.07;;;;;;;5.39;100.00;96233.53;4989498;28;102027;-62
2023/04/20 00:12:06;;;;;;;11.30;9.20;;;;;;;5.35;100.00;96231.56;4989306;28;105087;-62
2023/04/20 00:14:33;;;;;;;10.80;9.57;;;;;;;5.47;100.00;96225.31;4988688;28;105762;-62
2023/04/20 00:17:00;;;;;;;10.67;9.57;;;;;;;5.51;100.00;96226.47;4989215;28;101836;-62
2023/04/20 00:19:31;;;;;;;9.80;8.60;;;;;;;5.52;100.00;96224.66;4989386;28;105350;-62
2023/04/20 00:22:01;;;;;;;9.57;8.57;;;;;;;5.55;100.00;96213.63;4988960;28;105439;-62
2023/04/20 00:24:28;;;;;;;9.63;8.63;;;;;;;5.55;100.00;96211.00;4988703;28;101962;-62
2023/04/20 00:26:55;;;;;;;9.87;8.87;;;;;;;5.53;100.00;96213.06;4992077;28;104918;-62
2023/04/20 00:29:22;;;;;;;9.40;8.43;;;;;;;5.51;100.00;96201.94;4989131;28;101690;-62
2023/04/20 00:31:49;;;;;;;9.37;8.47;;;;;;;5.50;100.00;96203.75;4989134;28;105174;-62
2023/04/20 00:34:15;;;;;;;9.27;8.27;;;;;;;5.57;100.00;96198.41;4988379;28;105129;-62
2023/04/20 00:36:42;;;;;;;10.10;9.10;;;;;;;5.57;100.00;96201.84;4989112;28;101859;-62
2023/04/20 00:39:11;;;;;;;9.63;8.63;;;;;;;5.60;100.00;96188.22;4989173;28;105009;-62
2023/04/20 00:41:39;;;;;;;9.13;8.23;;;;;;;5.58;100.00;96189.47;4988257;28;105202;-62
2023/04/20 00:44:10;;;;;;;9.60;8.30;;;;;;;5.58;100.00;96186.81;4988708;28;101937;-62
2023/04/20 00:46:37;;;;;;;9.77;8.77;;;;;;;5.44;100.00;96188.84;4989226;28;105200;-62
2023/04/20 00:49:05;;;;;;;11.00;9.90;;;;;;;5.47;100.00;96188.41;4993093;28;102475;-62
2023/04/20 00:51:34;;;;;;;10.50;9.40;;;;;;;5.41;100.00;96178.72;4988912;28;104578;-61
2023/04/20 00:54:02;;;;;;;11.43;9.17;;;;;;;5.35;100.00;96173.56;4988258;28;105275;-62
2023/04/20 00:56:31;;;;;;;10.23;9.13;;;;;;;5.39;100.00;96166.78;4988667;28;101809;-62
2023/04/20 00:58:58;;;;;;;10.57;9.40;;;;;;;5.36;100.00;96164.63;4990157;28;102808;-62
2023/04/20 01:01:25;;;;;;;9.70;8.70;;;;;;;5.46;100.00;96159.63;4988226;28;104394;-62
2023/04/20 01:03:53;;;;;;;10.10;9.03;;;;;;;5.55;100.00;96148.53;4988643;28;102072;-62
2023/04/20 01:06:21;;;;;;;10.23;9.17;;;;;;;5.53;100.00;96145.31;4990595;28;105727;-62
2023/04/20 01:08:49;;;;;;;10.97;9.27;;;;;;;5.49;100.00;96144.16;4991712;28;105891;-61
2023/04/20 01:11:16;;;;;;;10.30;9.23;;;;;;;5.44;100.00;96137.91;4995799;28;101855;-62
2023/04/20 01:13:49;;;;;;;9.67;8.67;;;;;;;5.39;100.00;96135.16;4991626;28;105542;-62
2023/04/20 01:16:16;;;;;;;14.57;8.80;;;;;;;5.37;100.00;96138.03;4993529;28;101784;-62
2023/04/20 01:18:46;;;;;;;11.30;8.87;;;;;;;5.32;100.00;96131.81;4993496;28;102615;-62
2023/04/20 01:21:13;;;;;;;9.60;8.70;;;;;;;5.31;100.00;96135.47;4992760;28;102569;-62
2023/04/20 01:23:41;;;;;;;10.37;9.37;;;;;;;5.30;100.00;96139.16;4991342;28;102086;-62
2023/04/20 01:26:10;;;;;;;10.10;9.10;;;;;;;5.36;100.00;96139.03;4993417;28;102576;-62
2023/04/20 01:28:37;;;;;;;9.47;8.50;;;;;;;5.39;100.00;96137.78;4992270;28;102475;-62
2023/04/20 01:31:05;;;;;;;9.13;8.23;;;;;;;5.36;100.00;96127.72;4993363;28;101772;-62
2023/04/20 01:33:33;;;;;;;8.83;7.93;;;;;;;5.32;100.00;96121.25;4994735;28;105417;-62
2023/04/20 01:35:59;;;;;;;8.80;7.90;;;;;;;5.32;100.00;96118.63;4993193;28;101769;-62
2023/04/20 01:38:30;;;;;;;7.93;7.23;;;;;;;5.14;100.00;96118.69;4991907;28;105305;-62
2023/04/20 01:41:03;;;;;;;6.97;6.27;;;;;;;5.18;100.00;96118.00;4991172;28;105038;-62
2023/04/20 01:43:31;;;;;;;7.10;6.40;;;;;;;5.12;100.00;96118.09;4992641;28;101937;-62
2023/04/20 01:45:59;;;;;;;7.70;6.90;;;;;;;5.13;100.00;96109.16;4993469;28;102844;-62
2023/04/20 01:48:26;;;;;;;6.17;5.57;;;;;;;5.14;100.00;96102.88;4992483;28;103020;-62
2023/04/20 01:50:54;;;;;;;6.00;5.37;;;;;;;5.24;100.00;96108.41;4991684;28;101930;-62
2023/04/20 01:53:22;;;;;;;5.60;5.10;;;;;;;5.25;100.00;96104.75;4992790;28;102307;-62
2023/04/20 01:55:50;;;;;;;5.77;5.27;;;;;;;5.26;100.00;96106.34;4994560;28;103737;-62
2023/04/20 01:58:18;;;;;;;6.00;5.20;;;;;;;5.26;100.00;96095.81;4992760;28;102475;-62
2023/04/20 02:00:45;;;;;;;5.90;5.40;;;;;;;5.35;100.00;96105.00;4990816;28;105087;-62
2023/04/20 02:03:13;;;;;;;5.63;5.07;;;;;;;5.36;100.00;96102.13;4991259;28;101933;-62
2023/04/20 02:05:41;;;;;;;4.67;4.27;;;;;;;5.43;100.00;96102.03;4993100;28;102388;-62
2023/04/20 02:08:08;;;;;;;4.60;4.20;;;;;;;5.42;100.00;96095.16;4990683;28;105295;-62
2023/04/20 02:10:35;;;;;;;5.03;4.37;;;;;;;5.44;100.00;96090.47;4991285;28;101846;-62
2023/04/20 02:13:02;;;;;;;4.90;4.40;;;;;;;5.44;100.00;96090.47;4991368;28;103953;-62
2023/04/20 02:15:32;;;;;;;4.80;4.40;;;;;;;5.36;100.00;96101.34;4990622;28;105558;-62
2023/04/20 02:18:00;;;;;;;4.10;3.80;;;;;;;5.34;100.00;96090.22;4994479;28;101798;-62
2023/04/20 02:20:27;;;;;;;4.20;3.80;;;;;;;5.32;100.00;96094.91;4990670;28;105271;-62
2023/04/20 02:22:54;;;;;;;4.17;3.87;;;;;;;5.28;100.00;96096.38;4992004;28;101859;-62
2023/04/20 02:25:21;;;;;;;4.37;3.63;;;;;;;5.21;100.00;96098.31;4992747;28;101981;-61
2023/04/20 02:27:48;;;;;;;4.20;3.90;;;;;;;5.23;100.00;96097.06;4990332;28;105294;-61
2023/04/20 02:30:15;;;;;;;4.87;4.37;;;;;;;5.12;100.00;96094.41;4991105;28;101951;-62
2023/04/20 02:32:44;;;;;;;4.07;3.70;;;;;;;5.08;100.00;96101.13;4991007;28;104772;-62
2023/04/20 02:35:11;;;;;;;4.57;4.07;;;;;;;5.03;100.00;96098.34;4990321;28;104519;-62
2023/04/20 02:37:38;;;;;;;3.90;3.60;;;;;;;5.07;100.00;96102.94;4994033;28;101764;-62
2023/04/20 02:40:07;;;;;;;4.40;4.00;;;;;;;5.06;100.00;96100.53;4990105;28;105221;-62
2023/04/20 02:42:35;;;;;;;4.37;4.03;;;;;;;5.06;100.00;96095.25;4991023;28;101949;-62
2023/04/20 02:45:06;;;;;;;4.27;3.87;;;;;;;5.10;100.00;96096.44;4990819;28;103893;-62
2023/04/20 02:47:33;;;;;;;4.30;3.90;;;;;;;5.17;100.00;96087.41;4989973;28;103689;-62
2023/04/20 02:50:01;;;;;;;4.57;4.17;;;;;;;5.18;100.00;96083.75;4990803;28;102028;-61
2023/04/20 02:52:30;;;;;;;4.70;4.30;;;;;;;5.15;100.00;96081.56;4990681;28;104852;-62
2023/04/20 02:55:00;;;;;;;5.37;4.87;;;;;;;5.15;100.00;96083.38;4989659;28;104782;-62
2023/04/20 02:57:28;;;;;;;5.47;4.97;;;;;;;5.16;100.00;96077.09;4990769;28;101764;-62
2023/04/20 02:59:56;;;;;;;5.53;5.03;;;;;;;5.14;100.00;96084.41;4993180;28;102856;-62
2023/04/20 03:02:37;;;;;;;5.97;5.33;;;;;;;5.20;100.00;96071.16;4990676;28;101887;-62
2023/04/20 03:05:07;;;;;;;6.60;5.90;;;;;;;5.18;100.00;96067.91;4990597;28;104940;-62
2023/04/20 03:07:41;;;;;;;6.93;6.23;;;;;;;5.03;100.00;96064.09;4989929;28;105255;-62
2023/04/20 03:10:11;;;;;;;6.60;6.00;;;;;;;5.02;100.00;96067.75;4989959;28;101926;-61
2023/04/20 03:12:51;;;;;;;6.90;6.20;;;;;;;4.98;100.00;96066.59;4990441;28;105111;-62
2023/04/20 03:15:21;;;;;;;7.40;6.70;;;;;;;4.88;100.00;96064.50;4990949;28;102453;-62
2023/04/20 03:18:11;;;;;;;7.37;6.67;;;;;;;5.00;100.00;96070.63;4990248;28;101826;-62
2023/04/20 03:20:40;;;;;;;9.30;7.70;;;;;;;4.96;100.00;96069.44;4990054;28;104983;-62
2023/04/20 03:23:07;;;;;;;8.83;7.93;;;;;;;4.96;100.00;96058.91;4992579;28;105938;-62
2023/04/20 03:25:36;;;;;;;9.03;7.83;;;;;;;4.91;100.00;96057.97;4989956;28;104805;-62
2023/04/20 03:28:08;;;;;;;9.07;7.80;;;;;;;4.90;100.00;96059.00;4989066;28;104642;-62
2023/04/20 03:30:37;;;;;;;8.87;7.97;;;;;;;4.78;100.00;96068.66;4990042;28;102023;-62
2023/04/20 03:33:10;;;;;;;8.87;7.27;;;;;;;4.86;100.00;96063.13;4990317;28;103749;-62
2023/04/20 03:35:38;;;;;;;7.10;6.50;;;;;;;4.79;100.00;96057.91;4989216;28;105511;-62
2023/04/20 03:38:07;;;;;;;7.87;6.77;;;;;;;4.87;100.00;96054.19;4990031;28;102038;-62
2023/04/20 03:40:35;;;;;;;8.10;7.30;;;;;;;4.92;100.00;96056.94;4989756;28;105474;-62
2023/04/20 03:43:02;;;;;;;7.97;6.90;;;;;;;4.88;100.00;96053.97;4989457;28;105779;-62
2023/04/20 03:45:29;;;;;;;8.10;7.30;;;;;;;4.80;100.00;96064.00;4994778;28;101841;-62
2023/04/20 03:47:56;;;;;;;9.07;8.27;;;;;;;4.79;100.00;96057.91;4989269;28;104306;-62
2023/04/20 03:50:25;;;;;;;8.30;7.43;;;;;;;4.84;100.00;96050.16;4989663;28;101887;-62
2023/04/20 03:52:52;;;;;;;8.40;7.60;;;;;;;4.79;100.00;96050.03;4989472;28;105315;-62
2023/04/20 03:55:21;;;;;;;7.87;7.07;;;;;;;4.74;100.00;96046.47;4988989;28;105702;-62
2023/04/20 03:57:55;;;;;;;7.23;6.57;;;;;;;4.78;100.00;96047.59;4989815;28;101839;-62
2023/04/20 04:00:24;;;;;;;7.63;6.83;;;;;;;4.71;100.00;96044.25;4989440;28;105247;-62
2023/04/20 04:02:54;;;;;;;7.90;7.10;;;;;;;4.73;100.00;96044.81;4989072;28;105432;-62
2023/04/20 04:05:26;;;;;;;7.40;6.40;;;;;;;4.72;100.00;96046.69;4991144;28;101686;-62
2023/04/20 04:07:53;;;;;;;6.50;5.90;;;;;;;4.69;100.00;96035.78;4992378;28;105051;-62
2023/04/20 04:10:22;;;;;;;6.10;5.60;;;;;;;4.71;100.00;96042.44;4989347;28;101946;-62
2023/04/20 04:12:49;;;;;;;6.77;6.17;;;;;;;4.68;100.00;96045.50;4989268;28;105835;-62
2023/04/20 04:15:18;;;;;;;6.40;5.80;;;;;;;4.68;100.00;96039.41;4988931;28;105207;-62
2023/04/20 04:17:53;;;;;;;6.43;5.83;;;;;;;4.62;100.00;96032.41;4989438;28;101912;-62
2023/04/20 04:20:21;;;;;;;6.47;5.87;;;;;;;4.59;100.00;96031.03;4989526;28;104951;-62
2023/04/20 04:22:48;;;;;;;5.30;4.90;;;;;;;4.48;100.00;96046.78;4988011;28;105423;-62
2023/04/20 04:25:31;;;;;;;5.50;5.00;;;;;;;4.63;100.00;96047.22;4989342;28;101816;-62
2023/04/20 04:27:59;;;;;;;5.67;5.17;;;;;;;4.64;100.00;96033.78;4989278;28;105104;-62
2023/04/20 04:30:28;;;;;;;5.33;4.93;;;;;;;4.65;100.00;96031.97;4991977;28;101761;-62
2023/04/20 04:32:58;;;;;;;4.90;4.50;;;;;;;4.78;100.00;96029.97;4988675;28;104135;-62
2023/04/20 04:35:26;;;;;;;5.10;4.70;;;;;;;4.68;100.00;96023.63;4988303;28;105275;-62
2023/04/20 04:37:55;;;;;;;5.40;4.90;;;;;;;4.69;100.00;96036.56;4988817;28;101918;-62
2023/04/20 04:40:22;;;;;;;5.50;5.00;;;;;;;4.67;100.00;96028.09;4987659;28;105201;-62
2023/04/20 04:42:54;;;;;;;5.90;5.00;;;;;;;4.54;100.00;96030.88;4988760;28;105277;-62
2023/04/20 04:45:24;;;;;;;4.93;4.53;;;;;;;4.59;100.00;96025.75;4989113;28;101965;-62
2023/04/20 04:47:52;;;;;;;5.40;4.90;;;;;;;4.61;100.00;96023.72;4990570;28;102495;-62
2023/04/20 04:50:20;;;;;;;5.10;4.63;;;;;;;4.53;100.00;96016.13;4991837;28;105440;-62
2023/04/20 04:52:47;;;;;;;4.97;4.57;;;;;;;4.61;100.00;96012.38;4990430;28;102495;-62
2023/04/20 04:55:15;;;;;;;5.03;4.60;;;;;;;4.59;100.00;96009.16;4990041;28;102878;-62
2023/04/20 04:57:42;;;;;;;5.23;4.70;;;;;;;4.63;100.00;96005.06;4990798;28;101719;-62
2023/04/20 05:00:11;;;;;;;5.30;4.80;;;;;;;4.76;100.00;96000.41;4990700;28;102280;-62
2023/04/20 05:02:39;;;;;;;5.27;4.87;;;;;;;4.67;100.00;96006.22;4988616;28;104099;-62
2023/04/20 05:05:08;;;;;;;5.90;5.30;;;;;;;4.70;100.00;96000.53;4990397;28;101825;-62
2023/04/20 05:07:35;;;;;;;5.70;5.20;;;;;;;4.71;100.00;95999.47;4989211;28;103460;-61
2023/04/20 05:10:02;;;;;;;6.00;5.50;;;;;;;4.66;100.00;96004.63;4989839;28;102452;-62
2023/04/20 05:12:29;;;;;;;6.67;6.07;;;;;;;4.68;100.00;95999.91;4993711;28;101796;-62
2023/04/20 05:15:10;;;;;;;5.90;5.40;;;;;;;4.82;100.00;96004.00;4989383;28;102839;-62
2023/04/20 05:17:37;;;;;;;7.00;6.40;;;;;;;4.75;100.00;96016.47;4998574;28;101777;-62
2023/04/20 05:20:06;;;;;;;7.20;6.53;;;;;;;4.81;100.00;96016.34;5010121;28;102487;-62
2023/04/20 05:22:33;;;;;;;8.63;7.73;;;;;;;4.87;100.00;96018.13;5008989;28;102809;-62
2023/04/20 05:25:01;;;;;;;7.30;6.60;;;;;;;4.84;100.00;96012.47;5010148;28;102175;-62
2023/04/20 05:27:28;;;;;;;7.57;6.77;;;;;;;4.91;100.00;96008.72;5010044;28;102357;-62
2023/04/20 05:29:55;;;;;;;7.83;6.77;;;;;;;4.92;100.00;96014.81;5009106;28;101843;-62
2023/04/20 05:32:23;;;;;;;6.87;6.27;;;;;;;4.92;100.00;96015.59;5008481;28;101955;-62
2023/04/20 05:34:50;;;;;;;7.80;6.77;;;;;;;4.87;100.00;96010.22;5012104;28;102340;-62
2023/04/20 05:37:17;;;;;;;6.83;6.23;;;;;;;4.88;100.00;96011.00;5008108;28;101846;-62
2023/04/20 05:39:45;;;;;;;6.90;6.20;;;;;;;4.87;100.00;96004.13;5009571;28;102353;-62
2023/04/20 05:42:12;;;;;;;6.80;6.20;;;;;;;4.95;100.00;96009.06;5007582;28;106296;-62
2023/04/20 05:44:40;;;;;;;6.47;5.87;;;;;;;4.93;100.00;96013.75;5007439;28;102444;-62
2023/04/20 05:47:07;;;;;;;6.17;5.67;;;;;;;4.80;100.00;96006.06;5009853;28;102366;-62
2023/04/20 05:49:36;;;;;;;6.80;6.20;;;;;;;4.74;100.00;96002.47;5008487;28;103104;-62
2023/04/20 05:52:03;;;;;;;10.17;6.93;;;;;;;4.71;100.00;96007.38;5010606;28;101802;-62
2023/04/20 05:54:30;;;;;;;7.10;6.37;;;;;;;4.66;100.00;96008.06;5012532;28;101641;-62
2023/04/20 05:56:57;;;;;;;7.20;6.00;;;;;;;4.73;100.00;96016.66;5014230;28;105771;-62
2023/04/20 05:59:25;;;;;;;7.53;6.83;;;;;;;4.72;100.00;96015.06;5012050;28;102315;-62
2023/04/20 06:01:52;;;;;;;7.30;6.67;;;;;;;4.69;100.00;96010.25;5011556;28;102886;-62
2023/04/20 06:04:19;;;;;;;7.33;6.63;;;;;;;4.83;100.00;96010.88;5012778;28;101766;-62
2023/04/20 06:06:48;;;;;;;7.60;6.80;;;;;;;4.74;100.00;96005.09;5012585;28;102881;-62
2023/04/20 06:09:14;;;;;;;7.53;6.73;;;;;;;4.70;100.00;96006.56;5010740;28;105256;-62
2023/04/20 06:11:41;;;;;;;8.17;7.40;;;;;;;4.79;100.00;96005.25;5012373;28;101836;-62
2023/04/20 06:14:10;;;;;;;7.67;6.97;;;;;;;4.97;100.00;96009.66;5011364;28;105721;-62
2023/04/20 06:16:37;;;;;;;7.47;6.80;;;;;;;5.02;100.00;96009.78;5010486;28;105211;-62
2023/04/20 06:19:04;;;;;;;7.43;6.73;;;;;;;4.89;100.00;95999.44;5014224;28;102109;-62
2023/04/20 06:21:33;;;;;;;7.13;6.43;;;;;;;4.96;100.00;96000.94;5012143;28;102851;-62
2023/04/20 06:24:02;;;;;;;7.47;6.77;;;;;;;4.97;100.00;95997.28;5011817;28;101841;-62
2023/04/20 06:26:29;;;;;;;6.90;6.30;;;;;;;5.03;100.00;95998.22;5012444;28;102348;-62
2023/04/20 06:28:56;;;;;;;6.53;5.93;;;;;;;5.02;100.00;95997.41;5010419;28;105178;-62
2023/04/20 06:31:24;;;;;;;6.33;5.83;;;;;;;5.07;100.00;95991.47;5012354;28;101920;-62
2023/04/20 06:33:50;;;;;;;6.40;5.90;;;;;;;4.93;100.00;95990.06;5010853;28;104940;-62
2023/04/20 06:36:17;;;;;;;5.80;5.30;;;;;;;5.00;100.00;95986.31;5010306;28;105053;-62
2023/04/20 06:38:44;;;;;;;5.60;5.10;;;;;;;5.01;100.00;95985.25;5014407;28;102366;-62
2023/04/20 06:41:15;;;;;;;5.77;5.27;;;;;;;5.29;100.00;95982.00;5010025;28;105293;-62
2023/04/20 06:43:44;;;;;;;5.50;5.00;;;;;;;5.17;100.00;95978.53;5010694;28;102203;-62
2023/04/20 06:46:11;;;;;;;5.27;4.77;;;;;;;5.16;100.00;95982.19;5010697;28;104239;-62
2023/04/20 06:48:37;;;;;;;5.20;4.70;;;;;;;5.21;100.00;95977.88;5010051;28;105401;-62
2023/04/20 06:51:04;;;;;;;4.90;4.50;;;;;;;5.21;100.00;95982.31;5010421;28;101871;-62
2023/04/20 06:53:32;;;;;;;5.43;4.93;;;;;;;5.29;100.00;95988.06;5010443;28;104817;-62
2023/04/20 06:55:59;;;;;;;5.70;5.10;;;;;;;5.39;100.00;95987.50;5011315;28;102790;-62
2023/04/20 06:58:28;;;;;;;5.17;4.70;;;;;;;5.34;100.00;95982.13;5011816;28;101879;-62
2023/04/20 07:00:55;;;;;;;5.07;4.60;;;;;;;5.23;100.00;95985.56;5013419;28;105190;-62
2023/04/20 07:03:21;;;;;;;5.27;4.87;;;;;;;5.27;100.00;95986.69;5010980;28;101811;-62
2023/04/20 07:05:51;;;;;;;5.40;4.90;;;;;;;5.21;100.00;95979.69;5010259;28;105361;-62
2023/04/20 07:08:18;;;;;;;4.90;4.50;;;;;;;5.11;100.00;95971.53;5011079;28;102587;-62
2023/04/20 07:10:46;;;;;;;4.97;4.57;;;;;;;5.39;100.00;95974.31;5011603;28;101789;-62
2023/04/20 07:13:15;;;;;;;5.60;4.87;;;;;;;5.44;100.00;95967.34;5010413;28;104912;-62
2023/04/20 07:15:45;;;;;;;7.50;6.13;;;;;;;5.39;100.00;95971.69;5009373;28;105227;-62
2023/04/20 07:18:13;;;;;;;7.50;6.13;;;;;;;5.45;100.00;95963.66;5010118;28;101950;-62
2023/04/20 07:20:40;;;;;;;5.90;5.30;;;;;;;5.49;100.00;95956.09;5010296;28;103671;-62
2023/04/20 07:23:08;;;;;;;4.67;4.27;;;;;;;5.32;100.00;95957.81;5005491;28;105546;-62
2023/04/20 07:25:35;;;;;;;8.77;4.93;;;;;;;5.54;100.00;95949.13;4990093;28;105167;-62
2023/04/20 07:28:03;;;;;;;6.83;4.70;;;;;;;5.74;100.00;95948.78;4989495;28;105046;-62
2023/04/20 07:30:31;;;;;;;3.97;3.67;;;;;;;5.85;100.00;95950.63;4991190;28;102127;-62
2023/04/20 07:32:59;;;;;;;4.07;3.77;;;;;;;5.87;100.00;95951.19;4989397;28;105054;-62
2023/04/20 07:35:26;;;;;;;4.37;4.07;;;;;;;5.87;100.00;95952.00;4989431;28;105576;-62
2023/04/20 07:37:54;;;;;;;4.20;3.90;;;;;;;6.00;100.00;95954.38;4989709;28;102031;-62
2023/04/20 07:40:21;;;;;;;3.80;3.50;;;;;;;5.84;100.00;95954.31;4989788;28;106508;-62
2023/04/20 07:42:48;;;;;;;3.50;3.20;;;;;;;5.95;100.00;95949.00;4989242;28;105734;-62
2023/04/20 07:45:15;;;;;;;3.40;3.10;;;;;;;5.94;100.00;95941.34;4992962;28;102062;-62
2023/04/20 07:47:45;;;;;;;3.10;2.90;;;;;;;6.15;100.00;95941.50;4989156;28;105897;-62
2023/04/20 07:50:14;;;;;;;3.33;3.13;;;;;;;6.11;100.00;95943.00;4989845;28;101773;-62
2023/04/20 07:52:40;;;;;;;3.40;3.10;;;;;;;6.17;100.00;95936.00;4989422;28;105218;-62
2023/04/20 07:55:10;;;;;;;2.80;2.60;;;;;;;6.21;100.00;95942.41;4989271;28;104243;-62
2023/04/20 07:57:37;;;;;;;2.23;2.10;;;;;;;6.30;100.00;95941.00;4989620;28;101906;-62
2023/04/20 08:00:06;;;;;;;2.67;2.47;;;;;;;6.18;100.00;95942.88;4989115;28;104808;-62
2023/04/20 08:02:39;;;;;;;2.90;2.70;;;;;;;6.33;100.00;95937.91;4987338;28;102535;-62
2023/04/20 08:05:07;;;;;;;2.47;2.20;;;;;;;6.34;100.00;95935.00;4989661;28;101891;-62
2023/04/20 08:07:35;;;;;;;2.10;2.00;;;;;;;6.47;100.00;95936.56;4992494;28;105451;-62
2023/04/20 08:10:04;;;;;;;2.30;2.10;;;;;;;6.53;100.00;95943.56;4989177;28;101863;-62
2023/04/20 08:12:31;;;;;;;2.37;2.17;;;;;;;6.51;100.00;95948.28;4989550;28;104465;-63
2023/04/20 08:15:00;;;;;;;2.43;2.23;;;;;;;6.47;100.00;95941.84;4988610;28;105086;-63
2023/04/20 08:17:27;;;;;;;2.27;2.17;;;;;;;6.48;100.00;95949.56;4989362;28;101745;-63
2023/04/20 08:19:54;;;;;;;2.57;2.37;;;;;;;6.59;100.00;95943.41;4989474;28;104763;-63
2023/04/20 08:22:23;;;;;;;2.23;2.13;;;;;;;6.63;100.00;95949.84;4988104;28;105241;-63
2023/04/20 08:24:51;;;;;;;2.50;2.30;;;;;;;6.73;100.00;95952.69;4989324;28;101830;-63
2023/04/20 08:27:18;;;;;;;2.03;1.93;;;;;;;6.52;100.00;95944.59;4990817;28;102311;-63
2023/04/20 08:29:45;;;;;;;2.40;2.20;;;;;;;6.65;100.00;95950.41;4993300;28;102485;-63
2023/04/20 08:32:12;;;;;;;2.00;1.90;;;;;;;6.58;100.00;95948.94;4990509;28;102382;-63
2023/04/20 08:34:39;;;;;;;1.80;1.70;;;;;;;6.65;100.00;95939.06;4988747;28;102528;-63
2023/04/20 08:37:06;;;;;;;2.47;1.87;;;;;;;6.80;100.00;95936.66;4988779;28;101940;-63
2023/04/20 08:39:34;;;;;;;2.50;2.30;;;;;;;6.72;100.00;95934.41;4988344;28;102506;-63
2023/04/20 08:42:02;;;;;;;2.97;2.23;;;;;;;6.78;100.00;95944.84;4979854;28;103834;-63
2023/04/20 08:44:44;;;;;;;2.23;2.03;;;;;;;7.02;100.00;95938.38;4984482;28;102573;-64
2023/04/20 08:47:11;;;;;;;2.17;2.07;;;;;;;7.08;100.00;95934.78;4989376;28;103512;-63
2023/04/20 08:49:39;;;;;;;2.10;2.00;;;;;;;6.99;100.00;95932.78;4994510;28;102551;-64
2023/04/20 08:52:09;;;;;;;1.97;1.87;;;;;;;6.96;100.00;95936.69;4991657;28;102774;-63
2023/04/20 08:54:46;;;;;;;1.40;1.40;;;;;;;6.86;100.00;95938.34;4991280;28;102596;-63
2023/04/20 08:57:14;;;;;;;1.60;1.50;;;;;;;6.84;100.00;95943.91;4990699;28;102101;-63
2023/04/20 08:59:45;;;;;;;1.50;1.50;;;;;;;6.76;100.00;95946.13;4991170;28;102643;-63
2023/04/20 09:02:13;;;;;;;1.50;1.50;;;;;;;6.83;100.00;95950.19;4992217;28;104989;-63
2023/04/20 09:04:47;;;;;;;1.90;1.80;;;;;;;6.96;100.00;95943.81;5007744;28;101947;-63
2023/04/20 09:07:18;;;;;;;1.60;1.50;;;;;;;6.83;100.00;95944.13;5008923;28;105676;-63
2023/04/20 09:09:54;;;;;;;1.33;1.33;;;;;;;6.99;100.00;95943.34;5005645;28;105692;-63
2023/04/20 09:12:24;;;;;;;1.43;1.43;;;;;;;6.96;100.00;95946.47;5013567;28;101735;-63
2023/04/20 09:18:14;;;;;;;1.60;1.50;;;;;;;7.11;100.00;95947.53;5008282;28;101787;-62
2023/04/20 09:20:41;;;;;;;1.80;1.70;;;;;;;7.11;100.00;95949.38;4989588;28;104971;-63
2023/04/20 09:23:12;;;;;;;1.73;1.63;;;;;;;7.03;100.00;95953.19;5010001;28;102674;-63
2023/04/20 09:25:39;;;;;;;2.20;2.10;;;;;;;6.86;100.00;95943.63;5010095;28;101791;-63
2023/04/20 09:28:08;;;;;;;2.53;2.43;;;;;;;6.77;100.00;95947.72;5012529;28;104886;-63
2023/04/20 09:30:40;;;;;;;2.53;2.43;;;;;;;6.90;100.00;95950.06;5001515;28;105330;-63
2023/04/20 09:33:13;;;;;;;1.97;1.87;;;;;;;6.92;100.00;95942.72;5011465;28;102411;-63
2023/04/20 09:35:41;;;;;;;2.27;2.17;;;;;;;6.90;100.00;95942.13;5016120;28;105015;-63
2023/04/20 09:38:08;;;;;;;2.43;2.30;;;;;;;7.18;100.00;95944.72;5013774;27;101965;-63
2023/04/20 09:40:36;;;;;;;2.60;2.47;;;;;;;7.34;100.00;95936.00;5016522;28;102627;-63
2023/04/20 09:43:27;;;;;;;2.60;2.50;;;;;;;7.40;100.00;95946.41;5020961;28;103074;-63
2023/04/20 09:45:57;;;;;;;2.43;2.33;;;;;;;7.22;100.00;95937.91;5032052;28;101873;-63
2023/04/20 09:48:25;;;;;;;2.93;2.73;;;;;;;7.28;100.00;95951.00;5033374;27;102794;-63
2023/04/20 09:50:52;;;;;;;3.10;2.90;;;;;;;7.30;100.00;95946.25;5020668;27;102541;-61
2023/04/20 09:53:30;;;;;;;3.00;2.80;;;;;;;7.26;100.00;95945.13;5013431;28;102312;-63
2023/04/20 09:55:59;;;;;;;3.00;2.80;;;;;;;7.41;100.00;95947.22;5027905;28;103367;-63
2023/04/20 09:58:29;;;;;;;2.90;2.70;;;;;;;7.41;100.00;95949.88;5035754;27;102883;-62
2023/04/20 10:00:56;;;;;;;2.90;2.70;;;;;;;7.50;100.00;95945.75;5008847;27;103524;-62
2023/04/20 10:04:00;;;;;;;2.80;2.70;;;;;;;7.49;100.00;95946.81;5018687;28;102660;-62
2023/04/20 10:06:29;;;;;;;2.63;2.53;;;;;;;7.61;100.00;95944.88;5031874;28;102000;-63
2023/04/20 10:08:57;;;;;;;2.40;2.30;;;;;;;7.76;100.00;95947.75;5032689;27;102468;-62
2023/04/20 10:11:25;;;;;;;2.50;2.40;;;;;;;7.85;100.00;95938.34;5016271;27;103091;-62
2023/04/20 10:13:54;;;;;;;2.63;2.43;;;;;;;7.93;100.00;95937.91;5013829;28;101872;-63
2023/04/20 10:16:21;;;;;;;2.73;2.53;;;;;;;8.00;100.00;95934.06;5017977;28;103753;-63
2023/04/20 10:18:59;;;;;;;2.60;2.50;;;;;;;7.77;100.00;95944.88;5030272;28;105510;-63
2023/04/20 10:21:26;;;;;;;2.77;2.57;;;;;;;7.81;100.00;95943.31;5027884;28;101948;-62
2023/04/20 10:23:55;;;;;;;2.63;2.43;;;;;;;7.96;100.00;95938.22;5031640;27;102967;-62
2023/04/20 10:26:22;;;;;;;2.57;2.47;;;;;;;8.11;100.00;95930.50;5032930;27;101940;-61
2023/04/20 10:28:49;;;;;;;2.67;2.57;;;;;;;8.02;100.00;95931.94;5030561;28;103508;-61
2023/04/20 10:31:20;;;;;;;3.10;2.90;;;;;;;7.88;100.00;95930.72;5012375;28;105383;-61
2023/04/20 10:34:13;;;;;;;3.10;2.80;;;;;;;7.56;100.00;95931.56;5011407;28;103625;-61
2023/04/20 10:36:41;;;;;;;2.90;2.70;;;;;;;7.83;100.00;95930.66;5011198;28;105083;-61
2023/04/20 10:39:16;;;;;;;3.07;2.83;;;;;;;8.10;100.00;95928.09;5014086;28;105302;-61
2023/04/20 10:41:54;;;;;;;2.93;2.73;;;;;;;8.28;100.00;95919.88;5010923;28;101927;-61
2023/04/20 10:44:25;;;;;;;3.50;3.30;;;;;;;8.32;100.00;95923.63;5027244;28;105329;-61
2023/04/20 10:46:54;;;;;;;3.17;2.97;;;;;;;8.34;100.00;95919.66;5031336;28;101749;-61
2023/04/20 10:49:27;;;;;;;3.27;2.97;;;;;;;8.31;100.00;95914.88;5024080;28;104864;-61
2023/04/20 10:51:55;;;;;;;3.30;3.10;;;;;;;8.48;100.00;95912.16;4991650;28;105060;-61
2023/04/20 10:57:46;;;;;;;2.90;2.70;;;;;;;9.08;100.00;95905.59;5030701;28;104597;-61
2023/04/20 11:00:17;;;;;;;2.80;2.60;;;;;;;9.60;100.00;95898.56;5016964;28;105436;-61
2023/04/20 11:02:50;;;;;;;2.40;2.30;;;;;;;10.05;100.00;95890.06;5011850;28;102077;-61
2023/04/20 11:05:17;;;;;;;2.40;2.20;;;;;;;10.74;100.00;95889.50;5013566;28;104792;-61
2023/04/20 11:07:51;;;;;;;2.60;2.40;;;;;;;11.06;100.00;95892.75;5012718;28;101866;-60
2023/04/20 11:10:18;;;;;;;2.00;1.90;;;;;;;11.31;100.00;95899.94;5004010;28;105012;-61
2023/04/20 11:12:45;;;;;;;2.10;2.00;;;;;;;11.19;100.00;95889.59;5029952;28;102745;-63
2023/04/20 11:15:32;;;;;;;2.13;2.03;;;;;;;11.49;100.00;95886.91;5020176;28;102127;-62
2023/04/20 11:18:08;;;;;;;2.03;1.93;;;;;;;11.32;100.00;95885.56;5030957;28;102414;-63
2023/04/20 11:20:35;;;;;;;1.97;1.87;;;;;;;11.18;100.00;95887.19;5016230;28;106583;-62
2023/04/20 11:23:04;;;;;;;1.60;1.60;;;;;;;11.20;100.00;95880.53;5030463;27;101865;-63
2023/04/20 11:25:31;;;;;;;1.60;1.50;;;;;;;11.14;100.00;95878.94;5030598;28;103873;-63
2023/04/20 11:28:06;;;;;;;1.53;1.43;;;;;;;10.60;100.00;95867.16;5015394;28;102758;-62
2023/04/20 11:30:38;;;;;;;1.80;1.70;;;;;;;11.05;100.00;95871.72;5013103;28;103070;-61
2023/04/20 11:33:09;;;;;;;1.80;1.70;;;;;;;11.22;100.00;95875.72;5012194;28;101702;-61
2023/04/20 11:35:37;;;;;;;1.70;1.60;;;;;;;10.85;100.00;95869.06;5011476;28;102053;-61
2023/04/20 11:38:04;;;;;;;1.93;1.80;;;;;;;11.11;100.00;95870.66;5011664;28;102234;-61
2023/04/20 11:40:31;;;;;;;1.67;1.57;;;;;;;11.09;100.00;95864.81;5010742;28;102622;-61